Flight Track Log - Related Links

Times and Time Zones

All times are in EDT time to prevent confusion due to time zone crossing. See the TAM3744 flight status page for this flight to view local times or setup timezone preferences in your user account.

Time Position Orientation Groundspeed Altitude Reporting Facility
EDT Latitude Longitude Course Direction KTS MPH feet Rate Location/Type
Sun 03:42:00 PM -22.0535 -48.2147 317° Northwest  Level Estimated
Sun 03:43:00 PM -21.9949 -48.2717 318° Northwest  Level Estimated
Sun 03:44:00 PM -21.9363 -48.3288 318° Northwest  Level Estimated
Sun 03:45:00 PM -21.8778 -48.3857 318° Northwest  Level Estimated
Sun 03:46:00 PM -21.8191 -48.4427 318° Northwest  Level Estimated
Sun 03:47:00 PM -21.7605 -48.4995 318° Northwest  Level Estimated
Sun 03:48:00 PM -21.7019 -48.5564 318° Northwest  Level Estimated
Sun 03:49:00 PM -21.6432 -48.6132 318° Northwest  Level Estimated
Sun 03:50:00 PM -21.5845 -48.6699 318° Northwest  Level Estimated
Sun 03:51:00 PM -21.5258 -48.7266 318° Northwest  Level Estimated
Sun 03:52:00 PM -21.4671 -48.7833 318° Northwest  Level Estimated
Sun 03:53:00 PM -21.4083 -48.8399 318° Northwest  Level Estimated
Sun 03:54:00 PM -21.3495 -48.8964 318° Northwest  Level Estimated
Sun 03:55:00 PM -21.2908 -48.9529 318° Northwest  Level Estimated
Sun 03:56:00 PM -21.2319 -49.0094 318° Northwest  Level Estimated
Sun 03:57:00 PM -21.1731 -49.0658 318° Northwest  Level Estimated
Sun 03:58:00 PM -21.1143 -49.1222 318° Northwest  Level Estimated
Sun 03:59:00 PM -21.0554 -49.1786 318° Northwest  Level Estimated
Sun 04:00:00 PM -20.9965 -49.2348 318° Northwest  Level Estimated
Sun 04:01:00 PM -20.9376 -49.2911 318° Northwest  Level Estimated
Sun 04:02:00 PM -20.8787 -49.3473 318° Northwest  Level Estimated
Sun 04:03:00 PM -20.8198 -49.4035 318° Northwest  Level Estimated
Sun 04:04:00 PM -20.8166 -49.4065 318° Northwest  Level Estimated
Sun 04:05:00 PM -20.8166 -49.4065 343° North  Level Estimated
Sun 04:06:00 PM -20.8166 -49.4065 343° North  Level Estimated
Sun 04:07:00 PM -20.8166 -49.4065 343° North  Level Estimated
Sun 04:08:00 PM -20.8166 -49.4065 343° North  Level Estimated
Sun 04:09:00 PM -20.8166 -49.4065 343° North  Level Estimated
Sun 04:10:00 PM -20.8166 -49.4065 343° North  Level Estimated
Sun 04:11:00 PM -20.8166 -49.4065 343° North  Level Estimated
Sun 04:12:00 PM -20.8166 -49.4065 343° North  Level Estimated
Sun 04:13:00 PM -20.8166 -49.4065 343° North  Level Estimated
Sun 04:14:00 PM -20.8166 -49.4065 343° North  Level Estimated
Sun 04:15:00 PM -20.8166 -49.4065 343° North  Level Estimated
Sun 04:16:00 PM -20.8166 -49.4065 343° North  Level Estimated
Sun 04:17:00 PM -20.8166 -49.4065 343° North  Level Estimated
Sun 04:18:00 PM -20.8166 -49.4065 343° North  Level Estimated
Sun 04:19:00 PM -20.8166 -49.4065 343° North  Level Estimated

Login

Don't have an account? Register now (free) for customized features, flight alerts, and more!